createdAt,value
2023-01-30T00:01:13.152Z,-1.62
2023-01-30T00:06:32.176Z,-1.62
2023-01-30T00:11:51.205Z,-1.54
2023-01-30T00:17:10.125Z,-1.45
2023-01-30T00:22:29.377Z,-1.4
2023-01-30T00:27:49.088Z,-1.27
2023-01-30T00:33:08.133Z,-1.25
2023-01-30T00:38:27.018Z,-1.17
2023-01-30T00:43:46.687Z,-1.16
2023-01-30T00:49:06.146Z,-1.08
2023-01-30T00:54:25.051Z,-1.1
2023-01-30T00:59:44.656Z,-1.17
2023-01-30T01:05:03.126Z,-1.21
2023-01-30T01:10:22.667Z,-1.23
2023-01-30T01:15:42.152Z,-1.14
2023-01-30T01:21:01.372Z,-1.03
2023-01-30T01:26:21.120Z,-0.93
2023-01-30T01:31:40.777Z,-0.8
2023-01-30T01:36:59.977Z,-0.69
2023-01-30T01:42:19.559Z,-0.65
2023-01-30T01:47:39.295Z,-0.58
2023-01-30T01:52:58.204Z,-0.56
2023-01-30T01:58:17.411Z,-0.58
2023-01-30T02:03:36.838Z,-0.65
2023-01-30T02:08:56.325Z,-0.62
2023-01-30T02:14:15.599Z,-0.62
2023-01-30T02:19:34.806Z,-0.61
2023-01-30T02:24:53.699Z,-0.61
2023-01-30T02:30:13.142Z,-0.63
2023-01-30T02:35:31.835Z,-0.58
2023-01-30T02:40:50.973Z,-0.62
2023-01-30T02:46:10.561Z,-0.69
2023-01-30T02:51:30.934Z,-0.72
2023-01-30T02:56:50.173Z,-0.73
2023-01-30T03:02:09.247Z,-0.72
2023-01-30T03:07:28.068Z,-0.62
2023-01-30T03:12:47.778Z,-0.56
2023-01-30T03:18:07.166Z,-0.52
2023-01-30T03:23:26.716Z,-0.44
2023-01-30T03:23:52.869Z,-0.24
2023-01-30T03:29:12.554Z,-0.39
2023-01-30T03:34:31.998Z,-0.36
2023-01-30T03:39:51.070Z,-0.38
2023-01-30T03:45:10.522Z,-0.32
2023-01-30T03:50:29.938Z,-0.42
2023-01-30T03:55:48.847Z,-0.46
2023-01-30T04:02:23.149Z,-0.41
2023-01-30T04:06:28.510Z,-0.39
2023-01-30T04:11:47.155Z,-0.39
2023-01-30T04:17:06.697Z,-0.51
2023-01-30T04:22:25.952Z,-0.68
2023-01-30T04:27:45.505Z,-0.75
2023-01-30T04:33:04.674Z,-0.75
2023-01-30T04:38:24.151Z,-0.65
2023-01-30T04:43:43.338Z,-0.62
2023-01-30T04:49:02.271Z,-0.58
2023-01-30T04:54:21.854Z,-0.62
2023-01-30T05:00:56.100Z,-0.63
2023-01-30T05:05:02.046Z,-0.65
2023-01-30T05:10:21.887Z,-0.63
2023-01-30T05:15:41.028Z,-0.65
2023-01-30T05:21:00.432Z,-0.66
2023-01-30T05:26:20.444Z,-0.63
2023-01-30T05:31:39.851Z,-0.62
2023-01-30T05:36:58.912Z,-0.61
2023-01-30T05:42:18.382Z,-0.65
2023-01-30T05:47:38.213Z,-0.63
2023-01-30T05:52:57.906Z,-0.62
2023-01-30T05:58:17.565Z,-0.58
2023-01-30T06:03:36.892Z,-0.55
2023-01-30T06:08:56.609Z,-0.55
2023-01-30T06:14:15.683Z,-0.54
2023-01-30T06:19:35.020Z,-0.55
2023-01-30T06:24:54.269Z,-0.55
2023-01-30T06:30:13.924Z,-0.55
2023-01-30T06:35:33.142Z,-0.48
2023-01-30T06:40:52.861Z,-0.41
2023-01-30T06:46:12.741Z,-0.42
2023-01-30T06:51:31.337Z,-0.41
2023-01-30T06:56:50.529Z,-0.41
2023-01-30T07:02:09.809Z,-0.41
2023-01-30T07:07:28.618Z,-0.39
2023-01-30T07:12:47.932Z,-0.39
2023-01-30T07:18:06.909Z,-0.35
2023-01-30T07:23:26.427Z,-0.35
2023-01-30T07:28:46.059Z,-0.34
2023-01-30T07:34:04.886Z,-0.25
2023-01-30T07:39:24.262Z,-0.15
2023-01-30T07:44:42.491Z,-0.18
2023-01-30T07:50:01.933Z,-0.17
2023-01-30T07:55:21.711Z,-0.24
2023-01-30T08:00:41.278Z,-0.34
2023-01-30T08:06:00.336Z,-0.38
2023-01-30T08:11:19.420Z,-0.38
2023-01-30T08:16:39.197Z,-0.34
2023-01-30T08:21:58.763Z,-0.22
2023-01-30T08:27:18.564Z,-0.15
2023-01-30T08:32:37.675Z,-0.07
2023-01-30T08:37:57.366Z,-0.03
2023-01-30T08:43:16.849Z,-0.01
2023-01-30T08:48:47.564Z,-0.04
2023-01-30T08:53:55.293Z,-0.08
2023-01-30T08:59:14.917Z,-0.01
2023-01-30T09:04:34.155Z,0.11
2023-01-30T09:09:53.404Z,0.23
2023-01-30T09:15:12.327Z,0.33
2023-01-30T09:20:31.659Z,0.38
2023-01-30T09:25:50.264Z,0.47
2023-01-30T09:31:09.635Z,0.5
2023-01-30T09:36:29.197Z,0.55
2023-01-30T09:41:48.118Z,0.54
2023-01-30T09:47:08.269Z,0.55
2023-01-30T09:52:27.404Z,0.58
2023-01-30T09:57:46.843Z,0.57
2023-01-30T10:03:06.394Z,0.57
2023-01-30T10:08:25.712Z,0.61
2023-01-30T10:13:45.234Z,0.72
2023-01-30T10:19:04.836Z,0.79
2023-01-30T10:24:24.203Z,0.91
2023-01-30T10:29:43.475Z,0.96
2023-01-30T10:35:02.648Z,0.95
2023-01-30T10:40:22.251Z,1.03
2023-01-30T10:45:41.169Z,1.09
2023-01-30T10:51:00.137Z,1.16
2023-01-30T10:56:19.539Z,1.22
2023-01-30T11:01:38.695Z,1.16
2023-01-30T11:06:57.811Z,1.15
2023-01-30T11:12:17.602Z,1.35
2023-01-30T11:19:19.274Z,1.3
2023-01-30T11:28:16.259Z,1.13
2023-01-30T11:33:34.585Z,1.1
2023-01-30T11:38:53.512Z,1.16
2023-01-30T11:44:12.875Z,1.19
2023-01-30T11:49:45.221Z,1.16
2023-01-30T11:54:52.257Z,1.15
2023-01-30T12:00:11.401Z,1.16
2023-01-30T12:05:30.570Z,1.19
2023-01-30T12:10:49.983Z,1.22
2023-01-30T12:16:09.716Z,1.16
2023-01-30T12:21:29.063Z,1.16
2023-01-30T12:26:48.400Z,1.2
2023-01-30T12:32:08.797Z,1.29
2023-01-30T12:37:26.508Z,1.42
2023-01-30T12:42:46.235Z,1.51
2023-01-30T12:48:05.697Z,1.51
2023-01-30T12:53:24.630Z,1.5
2023-01-30T12:58:43.451Z,1.53
2023-01-30T13:04:02.614Z,1.54
2023-01-30T13:09:21.476Z,1.53
2023-01-30T13:14:40.468Z,1.5
2023-01-30T13:19:59.526Z,1.54
2023-01-30T13:25:18.260Z,1.74
2023-01-30T13:30:37.370Z,1.82
2023-01-30T13:35:56.973Z,1.79
2023-01-30T13:41:16.678Z,1.79
2023-01-30T13:46:35.579Z,1.87
2023-01-30T13:51:54.881Z,1.95
2023-01-30T13:57:14.059Z,1.98
2023-01-30T14:02:32.910Z,2.04
2023-01-30T14:07:52.033Z,2.01
2023-01-30T14:13:11.394Z,1.98
2023-01-30T14:18:31.268Z,1.94
2023-01-30T14:25:05.323Z,1.91
2023-01-30T14:29:10.617Z,1.88
2023-01-30T14:34:29.863Z,1.85
2023-01-30T14:39:48.959Z,1.84
2023-01-30T14:45:08.301Z,1.82
2023-01-30T14:50:27.219Z,1.79
2023-01-30T14:55:45.498Z,1.77
2023-01-30T15:01:04.825Z,1.82
2023-01-30T15:06:23.272Z,1.87
2023-01-30T15:11:42.764Z,1.94
2023-01-30T15:17:02.358Z,1.97
2023-01-30T15:22:21.566Z,1.95
2023-01-30T15:27:41.132Z,1.95
2023-01-30T15:33:00.361Z,1.99
2023-01-30T15:38:19.623Z,2.08
2023-01-30T15:43:39.363Z,2.02
2023-01-30T15:48:58.438Z,1.99
2023-01-30T15:54:17.999Z,2.05
2023-01-30T15:59:37.725Z,1.94
2023-01-30T16:04:57.207Z,1.71
2023-01-30T16:10:16.274Z,1.67
2023-01-30T16:15:35.807Z,1.71
2023-01-30T16:21:01.881Z,1.68
2023-01-30T16:26:14.389Z,1.77
2023-01-30T16:31:33.279Z,1.85
2023-01-30T16:36:52.349Z,1.87
2023-01-30T16:42:11.193Z,1.88
2023-01-30T16:47:30.424Z,1.87
2023-01-30T16:52:49.766Z,1.82
2023-01-30T16:58:09.102Z,1.79
2023-01-30T17:03:28.197Z,1.7
2023-01-30T17:08:47.273Z,1.7
2023-01-30T17:14:06.606Z,1.61
2023-01-30T17:19:26.171Z,1.64
2023-01-30T17:24:45.342Z,1.66
2023-01-30T17:30:04.765Z,1.66
2023-01-30T17:35:25.155Z,1.66
2023-01-30T17:41:59.328Z,1.67
2023-01-30T17:46:04.347Z,1.68
2023-01-30T17:51:23.653Z,1.77
2023-01-30T17:56:42.603Z,1.81
2023-01-30T18:02:02.007Z,1.84
2023-01-30T18:07:21.437Z,1.89
2023-01-30T18:12:40.686Z,1.94
2023-01-30T18:18:00.594Z,1.98
2023-01-30T18:23:20.142Z,2.05
2023-01-30T18:28:39.212Z,2.08
2023-01-30T18:33:59.021Z,2.19
2023-01-30T18:39:18.040Z,2.22
2023-01-30T18:44:37.733Z,2.29
2023-01-30T18:49:56.915Z,2.3
2023-01-30T18:55:16.427Z,2.3
2023-01-30T19:00:34.671Z,2.3
2023-01-30T19:05:54.245Z,2.35
2023-01-30T19:11:13.734Z,2.35
2023-01-30T19:16:33.957Z,2.36
2023-01-30T19:21:52.013Z,2.39
2023-01-30T19:27:10.997Z,2.35
2023-01-30T19:32:30.365Z,2.33
2023-01-30T19:37:50.765Z,2.29
2023-01-30T19:43:11.058Z,2.28
2023-01-30T19:48:28.631Z,2.26
2023-01-30T19:53:48.301Z,2.3
2023-01-30T19:59:07.187Z,2.3
2023-01-30T20:04:26.599Z,2.22
2023-01-30T20:09:45.494Z,2.16
2023-01-30T20:15:05.208Z,2.08
2023-01-30T20:20:24.428Z,2.11
2023-01-30T20:25:43.884Z,2.08
2023-01-30T20:31:02.839Z,2.11
2023-01-30T20:36:21.728Z,2.08
2023-01-30T20:41:40.793Z,2.15
2023-01-30T20:46:59.750Z,2.18
2023-01-30T20:52:18.570Z,2.22
2023-01-30T20:57:38.389Z,2.25
2023-01-30T21:02:57.177Z,2.28
2023-01-30T21:08:16.771Z,2.34
2023-01-30T21:13:36.955Z,2.4
2023-01-30T21:14:02.645Z,2.56
2023-01-30T21:19:21.937Z,2.43
2023-01-30T21:24:41.009Z,2.4
2023-01-30T21:30:00.311Z,2.45
2023-01-30T21:35:19.694Z,2.45
2023-01-30T21:40:39.056Z,2.45
2023-01-30T21:45:57.915Z,2.4
2023-01-30T21:51:17.614Z,2.34
2023-01-30T21:56:37.572Z,2.3
2023-01-30T22:01:56.328Z,2.28
2023-01-30T22:07:15.520Z,2.29
2023-01-30T22:12:35.036Z,2.3
2023-01-30T22:17:54.360Z,2.28
2023-01-30T22:23:13.181Z,2.24
2023-01-30T22:28:32.978Z,2.24
2023-01-30T22:33:52.051Z,2.25
2023-01-30T22:39:11.284Z,2.24
2023-01-30T22:44:30.879Z,2.26
2023-01-30T22:49:49.977Z,2.24
2023-01-30T22:55:09.561Z,2.22
2023-01-30T23:00:29.642Z,2.25
2023-01-30T23:05:48.120Z,2.32
2023-01-30T23:11:08.141Z,2.24
2023-01-30T23:16:27.589Z,2.22
2023-01-30T23:21:47.069Z,2.22
2023-01-30T23:27:05.696Z,2.29
2023-01-30T23:32:24.617Z,2.32
2023-01-30T23:37:44.610Z,2.34
2023-01-30T23:43:03.733Z,2.26
2023-01-30T23:48:22.868Z,2.16
2023-01-30T23:53:41.783Z,2.18
2023-01-30T23:59:01.128Z,2.19
